createdAt,value
2023-02-16T00:00:05.475Z,11.52
2023-02-16T00:04:19.794Z,12.45
2023-02-16T00:08:23.918Z,10.25
2023-02-16T00:12:44.485Z,10.50
2023-02-16T00:16:47.751Z,11.68
2023-02-16T00:20:52.557Z,13.30
2023-02-16T00:24:55.409Z,13.55
2023-02-16T00:29:00.128Z,10.98
2023-02-16T00:33:03.511Z,12.50
2023-02-16T00:37:11.170Z,10.40
2023-02-16T00:41:34.712Z,12.82
2023-02-16T00:45:39.436Z,11.15
2023-02-16T00:49:42.673Z,10.73
2023-02-16T00:53:47.210Z,11.70
2023-02-16T00:57:53.875Z,11.20
2023-02-16T01:01:57.756Z,10.48
2023-02-16T01:06:14.914Z,11.02
2023-02-16T01:10:34.884Z,10.70
2023-02-16T01:14:38.417Z,11.07
2023-02-16T01:18:41.349Z,12.75
2023-02-16T01:22:44.832Z,9.77
2023-02-16T01:26:50.795Z,9.70
2023-02-16T01:30:55.220Z,13.77
2023-02-16T01:34:58.654Z,10.63
2023-02-16T01:39:03.238Z,11.15
2023-02-16T01:43:17.359Z,12.95
2023-02-16T01:47:38.237Z,12.15
2023-02-16T01:51:51.568Z,13.27
2023-02-16T01:56:00.306Z,13.45
2023-02-16T02:00:19.266Z,12.32
2023-02-16T02:04:44.601Z,13.10
2023-02-16T02:08:56.635Z,11.50
2023-02-16T02:13:07.998Z,12.15
2023-02-16T02:17:14.870Z,15.07
2023-02-16T02:22:10.753Z,13.70
2023-02-16T02:26:54.876Z,13.65
2023-02-16T02:31:04.874Z,10.77
2023-02-16T02:35:20.482Z,13.05
2023-02-16T02:39:35.478Z,9.30
2023-02-16T02:43:45.990Z,11.07
2023-02-16T02:47:49.887Z,10.18
2023-02-16T02:51:53.220Z,11.18
2023-02-16T02:56:18.081Z,11.32
2023-02-16T03:00:44.204Z,13.93
2023-02-16T03:04:49.536Z,10.07
2023-02-16T03:08:57.623Z,12.07
2023-02-16T03:13:01.849Z,13.40
2023-02-16T03:17:28.911Z,13.30
2023-02-16T03:21:51.628Z,12.32
2023-02-16T03:30:17.924Z,10.55
2023-02-16T03:34:23.991Z,14.43
2023-02-16T03:38:27.919Z,12.90
2023-02-16T03:42:33.079Z,11.00
2023-02-16T03:46:37.008Z,10.18
2023-02-16T03:50:41.608Z,13.23
2023-02-16T03:54:45.265Z,12.05
2023-02-16T03:58:48.320Z,11.05
2023-02-16T04:02:51.598Z,14.60
2023-02-16T04:06:56.208Z,12.35
2023-02-16T04:11:00.056Z,10.27
2023-02-16T04:15:03.808Z,9.90
2023-02-16T04:19:11.552Z,10.30
2023-02-16T04:23:16.279Z,10.50
2023-02-16T04:27:19.829Z,12.15
2023-02-16T04:31:23.215Z,11.35
2023-02-16T04:35:26.604Z,9.55
2023-02-16T04:39:30.887Z,8.63
2023-02-16T04:43:35.511Z,11.18
2023-02-16T04:47:38.638Z,11.05
2023-02-16T04:51:41.774Z,10.02
2023-02-16T04:55:49.267Z,11.02
2023-02-16T04:59:52.292Z,10.07
2023-02-16T05:03:55.934Z,9.30
2023-02-16T05:07:59.526Z,10.50
2023-02-16T05:12:21.181Z,10.38
2023-02-16T05:16:26.469Z,10.00
2023-02-16T05:20:43.328Z,11.27
2023-02-16T05:24:47.127Z,10.07
2023-02-16T05:28:52.127Z,9.88
2023-02-16T05:32:55.568Z,11.73
2023-02-16T05:36:58.657Z,10.65
2023-02-16T05:41:02.372Z,9.30
2023-02-16T05:45:07.810Z,11.45
2023-02-16T05:49:11.218Z,10.20
2023-02-16T05:53:15.236Z,8.55
2023-02-16T05:57:20.779Z,12.85
2023-02-16T06:01:25.008Z,9.10
2023-02-16T06:05:27.994Z,14.60
2023-02-16T06:09:31.909Z,11.00
2023-02-16T06:13:35.524Z,9.57
2023-02-16T06:17:40.100Z,9.80
2023-02-16T06:21:44.221Z,10.52
2023-02-16T06:25:52.009Z,11.77
2023-02-16T06:29:55.709Z,8.57
2023-02-16T06:34:01.358Z,10.45
2023-02-16T06:38:04.348Z,9.45
2023-02-16T06:42:07.811Z,9.38
2023-02-16T06:46:10.725Z,12.02
2023-02-16T06:50:15.649Z,9.18
2023-02-16T06:54:20.001Z,12.57
2023-02-16T06:58:22.905Z,9.45
2023-02-16T07:02:26.377Z,7.97
2023-02-16T07:06:30.952Z,10.60
2023-02-16T07:10:48.671Z,9.13
2023-02-16T07:14:52.670Z,7.95
2023-02-16T07:18:55.930Z,10.98
2023-02-16T07:23:00.718Z,10.05
2023-02-16T07:27:05.404Z,8.10
2023-02-16T07:31:09.916Z,6.57
2023-02-16T07:35:13.136Z,9.90
2023-02-16T07:39:18.476Z,9.90
2023-02-16T07:43:21.799Z,6.88
2023-02-16T07:47:24.773Z,10.48
2023-02-16T07:51:31.380Z,11.13
2023-02-16T07:55:40.868Z,8.75
2023-02-16T07:59:44.386Z,6.45
2023-02-16T08:03:47.349Z,11.00
2023-02-16T08:07:51.136Z,8.55
2023-02-16T08:11:56.005Z,9.32
2023-02-16T08:15:59.235Z,9.05
2023-02-16T08:20:02.897Z,9.75
2023-02-16T08:24:08.483Z,8.68
2023-02-16T08:28:15.146Z,8.05
2023-02-16T08:32:18.785Z,10.90
2023-02-16T08:36:25.323Z,8.77
2023-02-16T08:40:28.388Z,9.15
2023-02-16T08:44:34.931Z,9.27
2023-02-16T08:48:39.976Z,9.65
2023-02-16T08:52:44.273Z,7.38
2023-02-16T08:56:49.626Z,9.05
2023-02-16T09:00:54.998Z,8.82
2023-02-16T09:04:58.379Z,8.18
2023-02-16T09:09:01.490Z,10.38
2023-02-16T09:13:05.037Z,9.15
2023-02-16T09:17:10.046Z,9.02
2023-02-16T09:21:19.263Z,8.50
2023-02-16T09:25:22.379Z,11.10
2023-02-16T09:29:25.935Z,9.70
2023-02-16T09:33:30.880Z,9.38
2023-02-16T09:37:34.593Z,9.00
2023-02-16T09:41:48.230Z,8.50
2023-02-16T09:45:53.380Z,10.80
2023-02-16T09:49:59.618Z,9.20
2023-02-16T09:54:15.856Z,8.70
2023-02-16T09:58:22.550Z,11.82
2023-02-16T10:02:42.462Z,9.55
2023-02-16T10:06:59.823Z,9.43
2023-02-16T10:11:30.211Z,8.48
2023-02-16T10:15:36.198Z,9.57
2023-02-16T10:19:43.948Z,11.02
2023-02-16T10:23:54.026Z,9.73
2023-02-16T10:28:12.631Z,10.68
2023-02-16T10:32:28.029Z,8.93
2023-02-16T10:37:01.332Z,9.07
2023-02-16T10:41:19.223Z,9.07
2023-02-16T10:45:29.516Z,8.95
2023-02-16T10:49:35.395Z,9.18
2023-02-16T10:53:43.625Z,8.95
2023-02-16T10:57:54.457Z,7.85
2023-02-16T11:02:00.165Z,9.05
2023-02-16T11:06:16.149Z,10.18
2023-02-16T11:10:22.544Z,9.60
2023-02-16T11:14:30.484Z,10.65
2023-02-16T11:18:38.289Z,9.27
2023-02-16T11:22:41.654Z,10.25
2023-02-16T11:26:45.132Z,9.00
2023-02-16T11:30:49.923Z,9.80
2023-02-16T11:34:55.330Z,10.63
2023-02-16T11:39:02.112Z,10.73
2023-02-16T11:43:06.261Z,9.30
2023-02-16T11:47:25.292Z,11.45
2023-02-16T11:51:35.024Z,10.38
2023-02-16T11:55:41.025Z,10.43
2023-02-16T11:59:44.276Z,11.02
2023-02-16T12:04:04.935Z,10.30
2023-02-16T12:08:33.725Z,10.98
2023-02-16T12:12:46.903Z,10.10
2023-02-16T12:16:58.639Z,9.63
2023-02-16T12:21:12.838Z,12.70
2023-02-16T12:25:27.690Z,11.60
2023-02-16T12:29:41.445Z,10.45
2023-02-16T12:33:55.903Z,10.77
2023-02-16T12:38:10.271Z,9.27
2023-02-16T12:42:30.364Z,12.73
2023-02-16T12:46:39.590Z,12.45
2023-02-16T12:50:45.372Z,10.65
2023-02-16T12:54:54.788Z,10.55
2023-02-16T12:59:09.350Z,10.18
2023-02-16T13:03:36.170Z,10.75
2023-02-16T13:07:42.488Z,12.13
2023-02-16T13:11:52.073Z,12.48
2023-02-16T13:16:03.850Z,11.30
2023-02-16T13:20:15.318Z,9.80
2023-02-16T13:24:30.065Z,12.10
2023-02-16T13:28:50.336Z,11.23
2023-02-16T13:33:09.854Z,9.38
2023-02-16T13:37:32.122Z,10.90
2023-02-16T13:42:08.100Z,11.25
2023-02-16T13:46:24.176Z,8.32
2023-02-16T13:50:31.512Z,8.65
2023-02-16T13:54:38.058Z,10.48
2023-02-16T13:58:42.249Z,9.95
2023-02-16T14:03:02.481Z,11.05
2023-02-16T14:07:33.365Z,9.50
2023-02-16T14:12:03.195Z,11.10
2023-02-16T14:16:11.649Z,11.10
2023-02-16T14:20:31.615Z,9.75
2023-02-16T14:24:40.256Z,9.77
2023-02-16T14:29:12.798Z,11.20
2023-02-16T14:33:23.036Z,11.45
2023-02-16T14:37:38.513Z,9.23
2023-02-16T14:41:41.913Z,10.98
2023-02-16T14:50:13.327Z,10.70
2023-02-16T14:54:43.382Z,11.67
2023-02-16T14:58:56.167Z,11.95
2023-02-16T15:07:06.096Z,11.00
2023-02-16T15:11:21.152Z,12.43
2023-02-16T15:15:30.519Z,9.75
2023-02-16T15:19:34.276Z,11.27
2023-02-16T15:23:39.293Z,10.95
2023-02-16T15:27:54.418Z,10.27
2023-02-16T15:32:00.740Z,10.95
2023-02-16T15:36:08.408Z,10.73
2023-02-16T15:40:29.890Z,11.45
2023-02-16T15:44:36.664Z,10.32
2023-02-16T15:48:40.362Z,11.50
2023-02-16T15:52:44.428Z,11.02
2023-02-16T15:56:49.819Z,14.05
2023-02-16T16:00:56.389Z,11.57
2023-02-16T16:05:02.384Z,12.32
2023-02-16T16:09:08.744Z,10.55
2023-02-16T16:13:19.973Z,12.10
2023-02-16T16:17:30.281Z,11.55
2023-02-16T16:21:36.979Z,12.95
2023-02-16T16:25:43.405Z,11.75
2023-02-16T16:29:49.437Z,12.68
2023-02-16T16:33:59.446Z,11.60
2023-02-16T16:38:04.497Z,9.38
2023-02-16T16:42:17.562Z,11.68
2023-02-16T16:46:22.574Z,11.00
2023-02-16T16:50:39.062Z,12.07
2023-02-16T16:54:43.394Z,11.00
2023-02-16T16:58:50.541Z,11.50
2023-02-16T17:02:54.277Z,13.18
2023-02-16T17:06:59.169Z,12.27
2023-02-16T17:11:03.846Z,12.57
2023-02-16T17:15:09.132Z,12.70
2023-02-16T17:19:14.100Z,13.48
2023-02-16T17:23:22.108Z,12.88
2023-02-16T17:27:25.160Z,14.38
2023-02-16T17:31:29.253Z,14.32
2023-02-16T17:35:32.796Z,11.88
2023-02-16T17:39:38.090Z,13.73
2023-02-16T17:43:41.120Z,12.52
2023-02-16T17:47:45.974Z,12.20
2023-02-16T17:51:49.039Z,10.43
2023-02-16T17:55:55.570Z,13.77
2023-02-16T17:59:58.940Z,13.57
2023-02-16T18:04:03.200Z,12.73
2023-02-16T18:08:07.086Z,13.43
2023-02-16T18:12:11.896Z,13.23
2023-02-16T18:16:19.114Z,12.85
2023-02-16T18:20:22.466Z,12.48
2023-02-16T18:24:26.003Z,12.80
2023-02-16T18:28:33.041Z,12.02
2023-02-16T18:32:36.360Z,11.65
2023-02-16T18:36:41.508Z,14.02
2023-02-16T18:40:45.776Z,13.90
2023-02-16T18:44:51.335Z,12.07
2023-02-16T18:48:54.729Z,14.40
2023-02-16T18:52:58.114Z,12.05
2023-02-16T18:57:01.566Z,11.85
2023-02-16T19:01:16.550Z,12.98
2023-02-16T19:05:20.073Z,13.07
2023-02-16T19:09:23.924Z,13.48
2023-02-16T19:13:27.021Z,13.98
2023-02-16T19:17:31.754Z,15.60
2023-02-16T19:21:35.007Z,15.55
2023-02-16T19:25:38.730Z,15.35
2023-02-16T19:29:42.736Z,15.75
2023-02-16T19:33:47.672Z,13.52
2023-02-16T19:37:52.111Z,13.98
2023-02-16T19:41:55.554Z,11.55
2023-02-16T19:46:04.885Z,14.30
2023-02-16T19:50:11.182Z,15.85
2023-02-16T19:54:14.621Z,17.52
2023-02-16T19:58:17.742Z,15.90
2023-02-16T20:02:21.146Z,14.43
2023-02-16T20:06:31.110Z,13.57
2023-02-16T20:10:34.871Z,14.25
2023-02-16T20:14:38.156Z,17.60
2023-02-16T20:18:42.762Z,15.38
2023-02-16T20:22:48.200Z,14.35
2023-02-16T20:26:52.529Z,15.88
2023-02-16T20:30:55.730Z,15.05
2023-02-16T20:34:59.596Z,15.50
2023-02-16T20:39:05.054Z,15.05
2023-02-16T20:43:08.630Z,13.60
2023-02-16T20:47:11.798Z,13.85
2023-02-16T20:51:15.870Z,13.43
2023-02-16T20:55:20.316Z,11.77
2023-02-16T20:59:23.866Z,13.68
2023-02-16T21:03:27.457Z,13.55
2023-02-16T21:07:30.992Z,14.18
2023-02-16T21:11:37.530Z,12.10
2023-02-16T21:15:41.056Z,14.75
2023-02-16T21:19:44.617Z,13.15
2023-02-16T21:23:51.292Z,14.90
2023-02-16T21:27:59.332Z,14.43
2023-02-16T21:32:02.842Z,12.23
2023-02-16T21:36:08.181Z,13.07
2023-02-16T21:40:32.798Z,14.07
2023-02-16T21:44:43.281Z,16.98
2023-02-16T21:48:46.802Z,16.83
2023-02-16T21:52:49.794Z,16.88
2023-02-16T21:56:53.184Z,16.42
2023-02-16T22:00:58.062Z,15.18
2023-02-16T22:05:03.093Z,16.30
2023-02-16T22:09:08.314Z,14.20
2023-02-16T22:13:12.982Z,15.35
2023-02-16T22:17:17.735Z,16.17
2023-02-16T22:21:21.695Z,18.42
2023-02-16T22:25:25.226Z,14.90
2023-02-16T22:29:28.897Z,15.32
2023-02-16T22:33:33.519Z,15.90
2023-02-16T22:37:37.021Z,17.90
2023-02-16T22:41:40.409Z,15.27
2023-02-16T22:45:44.431Z,18.40
2023-02-16T22:49:49.080Z,17.52
2023-02-16T22:53:52.562Z,18.13
2023-02-16T22:57:55.875Z,16.08
2023-02-16T23:01:59.060Z,17.67
2023-02-16T23:06:12.541Z,16.90
2023-02-16T23:10:17.144Z,16.55
2023-02-16T23:14:21.160Z,19.70
2023-02-16T23:18:25.367Z,18.60
2023-02-16T23:22:30.869Z,17.48
2023-02-16T23:26:34.546Z,17.23
2023-02-16T23:30:37.761Z,15.10
2023-02-16T23:34:41.358Z,15.05
2023-02-16T23:38:45.990Z,16.55
2023-02-16T23:42:52.428Z,15.68
2023-02-16T23:46:56.121Z,14.75
2023-02-16T23:51:00.567Z,15.48
2023-02-16T23:55:05.814Z,16.45
2023-02-16T23:59:09.184Z,17.55
